Time;durP1;ratioP1;P1;durP2;ratioP2;P2;SDS_P1;SDS_P2;PMS_P1;PMS_P2;Temp;Humidity;BMP_temperature;BMP_pressure;BME280_temperature;BME280_humidity;BME280_pressure;Samples;Min_cycle;Max_cycle;Signal;HPM_P1;HPM_P2
2023/04/27 00:02:08;;;;;;;4.40;0.90;;;;;;;8.93;59.41;100737.88;5053711;28;20033;-73
2023/04/27 00:04:33;;;;;;;7.55;1.02;;;;;;;8.74;59.49;100712.50;5036381;28;20056;-72
2023/04/27 00:06:58;;;;;;;6.68;0.90;;;;;;;8.92;59.89;100739.72;5019040;28;20437;-72
2023/04/27 00:09:24;;;;;;;4.15;0.95;;;;;;;8.89;60.17;100736.59;5035620;28;20489;-72
2023/04/27 00:11:50;;;;;;;5.40;0.90;;;;;;;8.89;60.21;100732.03;5035810;28;20506;-72
2023/04/27 00:14:15;;;;;;;3.05;0.70;;;;;;;8.66;60.66;100734.88;5036179;28;20038;-71
2023/04/27 00:16:41;;;;;;;4.07;1.10;;;;;;;8.80;60.88;100745.75;5020042;28;20183;-72
2023/04/27 00:19:07;;;;;;;3.45;0.80;;;;;;;8.83;59.96;100743.53;5035489;28;20034;-72
2023/04/27 00:21:33;;;;;;;4.97;0.75;;;;;;;8.74;59.98;100743.84;5020080;28;20477;-72
2023/04/27 00:23:59;;;;;;;4.28;1.10;;;;;;;8.74;59.94;100746.50;5052877;28;20050;-72
2023/04/27 00:26:25;;;;;;;4.20;1.10;;;;;;;8.59;59.93;100735.84;5039660;28;20365;-72
2023/04/27 00:28:51;;;;;;;6.88;1.02;;;;;;;8.75;59.38;100740.97;5038427;28;20033;-72
2023/04/27 00:31:16;;;;;;;5.97;0.88;;;;;;;8.86;59.62;100743.16;5038610;28;20076;-72
2023/04/27 00:33:42;;;;;;;5.43;1.05;;;;;;;8.81;58.79;100750.97;5039740;28;20061;-71
2023/04/27 00:36:07;;;;;;;3.75;0.95;;;;;;;8.81;58.47;100750.13;5040694;28;20095;-72
2023/04/27 00:38:33;;;;;;;2.80;1.00;;;;;;;8.74;57.45;100757.25;5023306;28;20488;-72
2023/04/27 00:41:03;;;;;;;2.83;0.82;;;;;;;8.72;58.81;100740.53;5039837;28;20044;-72
2023/04/27 00:43:29;;;;;;;3.33;0.70;;;;;;;8.54;58.93;100755.16;5039820;28;20030;-73
2023/04/27 00:45:55;;;;;;;5.95;0.90;;;;;;;8.65;58.82;100746.63;5040527;28;20025;-72
2023/04/27 00:48:20;;;;;;;5.20;0.90;;;;;;;8.66;59.19;100744.78;5040549;28;20081;-72
2023/04/27 00:50:46;;;;;;;4.68;0.93;;;;;;;8.64;58.82;100746.81;5042749;28;20037;-72
2023/04/27 00:53:13;;;;;;;4.80;1.05;;;;;;;8.61;58.54;100750.72;5044963;28;20123;-72
2023/04/27 00:55:39;;;;;;;4.85;0.82;;;;;;;8.59;58.53;100747.38;5040218;28;20458;-71
2023/04/27 00:58:04;;;;;;;5.18;1.00;;;;;;;8.78;58.03;100751.34;5038925;28;20057;-73
2023/04/27 01:00:30;;;;;;;3.42;0.80;;;;;;;8.55;59.11;100735.38;5040715;28;20103;-72
2023/04/27 01:02:55;;;;;;;2.75;0.77;;;;;;;8.54;58.38;100727.50;5039880;28;20307;-71
2023/04/27 01:05:23;;;;;;;5.80;1.00;;;;;;;8.64;58.74;100749.50;5040818;28;20118;-72
2023/04/27 01:07:48;;;;;;;1.98;0.60;;;;;;;8.59;57.32;100747.38;5039672;28;20080;-72
2023/04/27 01:10:14;;;;;;;5.43;0.75;;;;;;;8.36;57.70;100744.78;5039965;28;20033;-72
2023/04/27 01:12:39;;;;;;;1.75;0.80;;;;;;;8.43;57.98;100756.47;5037276;28;20045;-72
2023/04/27 01:15:06;;;;;;;4.70;0.82;;;;;;;8.63;57.40;100748.66;5018636;28;20025;-71
2023/04/27 01:17:31;;;;;;;5.75;0.85;;;;;;;8.59;57.63;100747.38;5038796;28;20029;-72
2023/04/27 01:19:58;;;;;;;7.63;1.00;;;;;;;8.60;57.73;100742.84;5039607;28;20052;-72
2023/04/27 01:22:24;;;;;;;2.88;0.63;;;;;;;8.53;57.85;100750.00;5038160;28;20037;-71
2023/04/27 01:24:50;;;;;;;6.22;0.90;;;;;;;8.35;58.69;100727.06;5037432;28;20021;-72
2023/04/27 01:27:15;;;;;;;2.33;0.80;;;;;;;8.62;58.05;100754.22;5038118;28;20032;-71
2023/04/27 01:29:41;;;;;;;6.38;0.88;;;;;;;8.56;57.75;100741.56;5043104;28;20033;-72
2023/04/27 01:32:06;;;;;;;4.30;0.85;;;;;;;8.60;58.41;100748.22;5039250;28;20191;-72
2023/04/27 01:34:32;;;;;;;6.57;1.13;;;;;;;8.50;58.09;100731.59;5033632;28;20140;-72
2023/04/27 01:36:57;;;;;;;5.05;0.73;;;;;;;8.56;57.90;100746.94;5036508;28;20132;-72
2023/04/27 01:39:23;;;;;;;3.22;0.80;;;;;;;8.52;57.94;100748.34;5022997;28;20041;-72
2023/04/27 01:41:48;;;;;;;3.40;0.57;;;;;;;8.36;58.35;100750.16;5044400;28;20044;-72
2023/04/27 01:44:13;;;;;;;6.13;0.98;;;;;;;8.35;57.71;100745.81;5039735;28;20034;-72
2023/04/27 01:46:39;;;;;;;3.40;0.60;;;;;;;8.24;58.33;100744.44;5055068;28;20059;-71
2023/04/27 01:49:05;;;;;;;4.40;1.00;;;;;;;8.40;57.37;100748.78;5037961;28;20460;-72
2023/04/27 01:51:31;;;;;;;4.18;1.08;;;;;;;8.40;58.95;100747.97;5039789;28;20033;-72
2023/04/27 01:53:57;;;;;;;5.10;0.90;;;;;;;8.31;58.45;100736.50;5038583;28;20029;-72
2023/04/27 01:56:22;;;;;;;3.25;0.60;;;;;;;8.27;58.03;100734.34;5037867;28;20477;-72
2023/04/27 01:58:48;;;;;;;2.70;0.77;;;;;;;8.56;57.45;100745.06;5037331;28;20029;-72
2023/04/27 02:01:15;;;;;;;3.42;0.68;;;;;;;8.38;57.04;100740.13;5039356;28;20403;-72
2023/04/27 02:03:40;;;;;;;3.85;0.70;;;;;;;8.64;57.06;100741.44;5038510;28;20029;-72
2023/04/27 02:06:06;;;;;;;4.13;0.73;;;;;;;8.56;58.20;100752.28;5038174;28;20116;-73
2023/04/27 02:08:33;;;;;;;4.18;0.77;;;;;;;8.54;57.64;100712.22;5038408;28;20037;-71
2023/04/27 02:10:58;;;;;;;3.58;1.00;;;;;;;8.67;56.84;100719.63;5039035;28;20029;-72
2023/04/27 02:13:24;;;;;;;7.50;0.93;;;;;;;8.52;57.09;100724.19;5023792;28;20435;-72
2023/04/27 02:15:49;;;;;;;3.90;1.00;;;;;;;8.58;57.08;100739.53;5035177;28;20423;-72
2023/04/27 02:18:15;;;;;;;5.28;0.80;;;;;;;8.58;56.62;100744.91;5035773;28;20037;-72
2023/04/27 02:20:41;;;;;;;2.75;0.70;;;;;;;8.70;56.53;100741.53;5038225;28;20021;-72
2023/04/27 02:23:06;;;;;;;4.05;0.60;;;;;;;8.68;57.47;100742.75;5036927;28;20056;-72
2023/04/27 02:25:35;;;;;;;4.72;0.93;;;;;;;8.46;58.19;100725.75;5037961;28;20029;-72
2023/04/27 02:28:00;;;;;;;7.00;0.88;;;;;;;8.60;58.13;100746.34;5037009;28;20045;-72
2023/04/27 02:30:25;;;;;;;2.92;0.68;;;;;;;8.64;58.26;100752.19;5036653;28;20021;-72
2023/04/27 02:32:51;;;;;;;3.75;0.70;;;;;;;8.64;57.83;100757.53;5019820;28;20114;-72
2023/04/27 02:35:17;;;;;;;9.60;0.98;;;;;;;8.62;58.04;100748.88;5052541;28;20073;-72
2023/04/27 02:37:42;;;;;;;3.13;0.70;;;;;;;8.46;57.41;100731.97;5038034;28;20052;-72
2023/04/27 02:40:08;;;;;;;5.20;0.80;;;;;;;8.64;57.41;100754.84;5037078;28;20120;-72
2023/04/27 02:42:34;;;;;;;3.25;1.42;;;;;;;8.60;57.53;100741.00;5037171;28;20037;-71
2023/04/27 02:45:00;;;;;;;4.93;0.90;;;;;;;8.39;58.67;100730.22;5033701;28;20511;-72
2023/04/27 02:47:25;;;;;;;3.35;0.77;;;;;;;8.51;58.23;100736.78;5036125;28;20026;-72
2023/04/27 02:49:51;;;;;;;4.88;0.65;;;;;;;8.47;58.49;100749.69;5037998;28;20030;-73
2023/04/27 02:52:17;;;;;;;4.78;1.05;;;;;;;8.67;58.79;100757.16;5054525;28;20028;-72
2023/04/27 02:54:42;;;;;;;4.15;0.75;;;;;;;8.69;60.35;100760.50;5037764;28;20021;-71
2023/04/27 02:57:08;;;;;;;3.65;0.80;;;;;;;8.56;60.82;100749.63;5020427;28;20128;-71
2023/04/27 02:59:33;;;;;;;3.53;0.80;;;;;;;8.46;60.77;100747.22;5036450;28;20022;-71
2023/04/27 03:01:58;;;;;;;3.65;0.70;;;;;;;8.32;60.72;100754.22;5026074;28;20025;-71
2023/04/27 03:04:24;;;;;;;2.85;0.70;;;;;;;8.30;60.68;100747.38;5020654;28;20033;-72
2023/04/27 03:06:49;;;;;;;2.13;0.70;;;;;;;8.31;61.31;100755.25;5035778;28;20037;-72
2023/04/27 03:09:15;;;;;;;8.02;0.95;;;;;;;8.36;61.31;100752.84;5036566;28;20512;-71
2023/04/27 03:11:40;;;;;;;6.28;1.10;;;;;;;8.39;60.68;100749.00;5035560;28;20036;-71
2023/04/27 03:14:06;;;;;;;4.20;0.50;;;;;;;8.25;60.07;100742.59;5036232;28;20035;-72
2023/04/27 03:16:32;;;;;;;3.83;0.60;;;;;;;8.41;59.25;100742.44;5035271;28;20029;-73
2023/04/27 03:18:57;;;;;;;2.45;0.70;;;;;;;8.64;58.91;100746.81;5035619;28;20048;-72
2023/04/27 03:21:23;;;;;;;3.53;0.98;;;;;;;8.65;59.59;100760.06;5052434;28;20032;-72
2023/04/27 03:23:48;;;;;;;3.50;0.63;;;;;;;8.37;59.57;100733.03;5037428;28;20052;-72
2023/04/27 03:26:14;;;;;;;3.83;0.57;;;;;;;8.23;59.97;100760.69;5037905;28;20036;-72
2023/04/27 03:28:39;;;;;;;2.75;0.57;;;;;;;8.19;60.46;100749.50;5019545;28;20504;-71
2023/04/27 03:31:09;;;;;;;3.63;0.60;;;;;;;8.17;60.40;100723.91;5036017;28;20111;-73
2023/04/27 03:33:36;;;;;;;4.05;1.40;;;;;;;8.43;60.15;100759.16;5019051;28;20041;-72
2023/04/27 03:36:03;;;;;;;3.13;0.57;;;;;;;8.50;60.07;100764.59;5037237;28;20034;-72
2023/04/27 03:38:29;;;;;;;6.88;1.10;;;;;;;8.56;59.78;100766.53;5037349;28;20053;-72
2023/04/27 03:40:55;;;;;;;3.60;0.60;;;;;;;8.45;59.80;100758.97;5037172;28;20033;-72
2023/04/27 03:43:21;;;;;;;1.90;0.57;;;;;;;8.40;58.96;100762.19;5036238;28;20049;-72
2023/04/27 03:45:47;;;;;;;3.22;0.70;;;;;;;8.44;59.53;100766.19;5033938;28;20057;-71
2023/04/27 03:48:13;;;;;;;3.63;0.80;;;;;;;8.42;59.63;100762.03;5036709;28;20029;-72
2023/04/27 03:50:38;;;;;;;3.25;0.77;;;;;;;8.35;59.98;100771.81;5039075;28;20032;-71
2023/04/27 03:53:04;;;;;;;1.67;0.50;;;;;;;8.45;60.42;100770.53;5042268;28;20033;-73
2023/04/27 03:55:30;;;;;;;2.30;0.60;;;;;;;8.50;60.25;100774.50;5042471;28;20261;-73
2023/04/27 03:57:55;;;;;;;2.45;0.50;;;;;;;8.39;60.02;100773.13;5037776;28;20033;-72
2023/04/27 04:00:21;;;;;;;2.22;0.52;;;;;;;8.45;58.62;100749.06;5022984;28;20108;-72
2023/04/27 04:02:47;;;;;;;1.55;0.50;;;;;;;9.15;58.09;100768.25;5038685;28;20025;-71
2023/04/27 04:05:14;;;;;;;2.50;0.82;;;;;;;9.51;56.56;100775.44;5038616;28;20045;-72
2023/04/27 04:07:42;;;;;;;1.60;0.40;;;;;;;9.36;56.24;100776.31;5041014;28;20120;-70
2023/04/27 04:10:09;;;;;;;2.72;0.60;;;;;;;9.20;57.38;100787.28;5041922;28;20029;-72
2023/04/27 04:12:34;;;;;;;5.07;0.90;;;;;;;8.73;58.91;100759.09;5041185;28;20025;-72
2023/04/27 04:15:00;;;;;;;2.20;0.52;;;;;;;8.46;58.42;100749.91;5041281;28;20029;-73
2023/04/27 04:17:26;;;;;;;4.72;0.50;;;;;;;8.67;59.00;100786.69;5036889;28;20044;-71
2023/04/27 04:19:51;;;;;;;4.50;0.65;;;;;;;8.73;58.25;100785.09;5041308;28;20029;-72
2023/04/27 04:22:16;;;;;;;2.10;0.60;;;;;;;8.73;58.02;100783.25;5041526;28;20036;-72
2023/04/27 04:24:42;;;;;;;3.45;0.55;;;;;;;8.72;57.92;100792.31;5057109;28;20029;-70
2023/04/27 04:27:08;;;;;;;1.35;0.38;;;;;;;8.65;58.50;100788.72;5007820;28;20460;-70
2023/04/27 04:29:33;;;;;;;3.72;0.68;;;;;;;8.57;58.80;100775.41;5039899;28;20056;-70
2023/04/27 04:31:59;;;;;;;4.72;0.50;;;;;;;8.80;59.18;100789.53;5039560;28;20025;-71
2023/04/27 04:34:25;;;;;;;2.85;0.70;;;;;;;8.78;59.19;100770.13;5038686;28;20017;-71
2023/04/27 04:36:50;;;;;;;2.33;0.30;;;;;;;8.59;59.86;100790.28;5037875;28;20054;-72
2023/04/27 04:39:19;;;;;;;3.95;0.73;;;;;;;8.73;60.44;100791.28;5006116;28;20097;-71
2023/04/27 04:41:44;;;;;;;1.63;0.47;;;;;;;8.80;58.19;100783.31;5039677;28;20029;-73
2023/04/27 04:44:10;;;;;;;1.85;0.40;;;;;;;8.40;58.45;100754.16;5038549;28;20140;-72
2023/04/27 04:46:37;;;;;;;2.67;0.35;;;;;;;8.42;59.83;100778.94;5037948;28;20021;-70
2023/04/27 04:49:03;;;;;;;1.98;0.43;;;;;;;8.53;59.51;100795.56;5039132;28;20017;-72
2023/04/27 04:51:29;;;;;;;3.40;0.60;;;;;;;8.93;58.04;100800.41;5041009;28;20036;-71
2023/04/27 04:53:55;;;;;;;3.20;0.40;;;;;;;8.74;57.72;100784.06;5042975;28;20460;-72
2023/04/27 04:56:20;;;;;;;3.63;0.63;;;;;;;8.93;57.79;100803.09;5039908;28;20036;-71
2023/04/27 04:58:46;;;;;;;3.22;0.75;;;;;;;8.93;56.72;100796.91;5020911;28;20103;-72
2023/04/27 05:01:11;;;;;;;2.65;0.45;;;;;;;10.40;53.40;100805.28;5037817;28;20029;-71
2023/04/27 05:03:37;;;;;;;2.47;0.50;;;;;;;10.55;52.82;100814.03;5037803;28;20030;-72
2023/04/27 05:06:02;;;;;;;5.38;1.25;;;;;;;9.71;55.52;100811.34;5037202;28;20051;-71
2023/04/27 05:08:28;;;;;;;5.53;0.68;;;;;;;9.41;56.19;100814.16;5038583;28;20040;-71
2023/04/27 05:10:53;;;;;;;3.83;1.05;;;;;;;9.18;56.46;100818.88;5019954;28;20029;-71
2023/04/27 05:13:20;;;;;;;3.38;0.73;;;;;;;9.14;56.70;100815.75;5037935;28;20032;-71
2023/04/27 05:15:45;;;;;;;1.83;0.40;;;;;;;9.15;56.65;100817.41;5036303;28;20405;-72
2023/04/27 05:18:11;;;;;;;2.80;0.30;;;;;;;9.10;56.94;100816.28;5035545;28;20123;-72
2023/04/27 05:20:37;;;;;;;4.03;0.50;;;;;;;8.89;57.42;100811.72;5052339;28;20195;-71
2023/04/27 05:23:03;;;;;;;2.53;0.60;;;;;;;9.41;57.12;100814.16;5037376;28;20400;-71
2023/04/27 05:25:32;;;;;;;4.90;0.50;;;;;;;9.43;55.68;100813.13;5021432;28;20022;-72
2023/04/27 05:27:58;;;;;;;4.13;0.68;;;;;;;9.31;57.27;100821.72;5039288;28;20052;-72
2023/04/27 05:30:24;;;;;;;1.98;0.38;;;;;;;9.48;55.32;100795.44;5057145;28;20488;-72
2023/04/27 05:32:50;;;;;;;1.52;0.50;;;;;;;9.98;54.52;100819.63;5056448;28;20029;-72
2023/04/27 05:35:15;;;;;;;1.95;0.20;;;;;;;9.78;55.12;100816.78;5039966;28;20040;-72
2023/04/27 05:37:41;;;;;;;2.47;0.52;;;;;;;9.68;54.93;100825.16;5041013;28;20143;-72
2023/04/27 05:40:08;;;;;;;1.25;0.40;;;;;;;9.33;55.96;100813.44;5042434;28;20033;-72
2023/04/27 05:42:34;;;;;;;4.38;0.50;;;;;;;9.38;56.06;100827.16;5040906;28;20049;-72
2023/04/27 05:45:01;;;;;;;1.60;0.40;;;;;;;9.41;54.90;100826.78;5043540;28;20084;-72
2023/04/27 05:47:27;;;;;;;2.15;0.55;;;;;;;9.53;55.45;100824.41;5039341;28;20032;-71
2023/04/27 05:49:55;;;;;;;5.38;0.40;;;;;;;9.33;55.31;100818.81;5040220;28;20477;-71
2023/04/27 05:52:22;;;;;;;1.77;0.40;;;;;;;9.81;54.84;100832.53;5038629;28;20507;-71
2023/04/27 05:54:48;;;;;;;5.70;0.70;;;;;;;9.53;55.20;100809.09;5040176;28;20044;-72
2023/04/27 05:57:16;;;;;;;4.38;0.70;;;;;;;9.17;56.19;100830.63;5040029;28;20397;-71
2023/04/27 05:59:42;;;;;;;2.03;0.30;;;;;;;9.40;56.27;100830.47;5041422;28;20073;-71
2023/04/27 06:02:08;;;;;;;3.78;0.50;;;;;;;9.45;55.99;100833.41;5039724;28;20076;-71
2023/04/27 06:04:35;;;;;;;1.23;0.40;;;;;;;9.57;54.91;100837.28;5004498;28;20100;-71
2023/04/27 06:07:02;;;;;;;4.32;0.65;;;;;;;9.73;55.12;100843.38;5036675;28;20407;-69
2023/04/27 06:09:29;;;;;;;3.25;0.80;;;;;;;9.63;56.40;100841.03;5021062;28;20061;-71
2023/04/27 06:11:57;;;;;;;3.65;0.70;;;;;;;10.00;55.35;100826.50;5019682;28;20025;-72
2023/04/27 06:14:23;;;;;;;3.03;0.40;;;;;;;10.24;54.74;100832.44;5020805;28;20124;-72
2023/04/27 06:16:48;;;;;;;3.67;0.50;;;;;;;9.93;55.62;100835.50;5038489;28;20065;-72
2023/04/27 06:19:13;;;;;;;1.55;0.50;;;;;;;10.06;56.29;100849.06;5021171;28;20026;-72
2023/04/27 06:21:39;;;;;;;2.75;0.30;;;;;;;9.95;55.47;100854.97;5038142;28;20025;-71
2023/04/27 06:24:05;;;;;;;3.22;0.40;;;;;;;10.07;54.35;100821.16;5037988;28;20508;-72
2023/04/27 06:26:30;;;;;;;3.10;0.43;;;;;;;10.48;53.95;100864.28;5039181;28;20109;-73
2023/04/27 06:28:56;;;;;;;1.30;0.30;;;;;;;10.10;54.51;100831.53;5039187;28;20419;-73
2023/04/27 06:31:21;;;;;;;2.70;0.65;;;;;;;9.85;54.54;100844.53;5033131;28;20457;-73
2023/04/27 06:33:47;;;;;;;4.20;0.45;;;;;;;10.37;54.27;100850.56;5038532;28;20203;-73
2023/04/27 06:36:12;;;;;;;4.25;0.70;;;;;;;10.17;55.00;100853.91;5039413;28;20211;-73
2023/04/27 06:38:37;;;;;;;4.13;0.55;;;;;;;10.09;54.00;100856.72;5039084;28;20037;-71
2023/04/27 06:41:03;;;;;;;5.90;0.70;;;;;;;9.68;55.15;100853.91;5039180;28;20472;-73
2023/04/27 06:43:29;;;;;;;2.08;0.55;;;;;;;9.72;54.08;100853.31;5038575;28;20029;-72
2023/04/27 06:45:55;;;;;;;3.35;0.40;;;;;;;10.05;54.07;100831.25;5039620;28;20742;-73
2023/04/27 06:48:20;;;;;;;7.30;0.43;;;;;;;9.87;54.66;100861.31;5038628;28;20017;-72
2023/04/27 06:50:46;;;;;;;3.13;0.60;;;;;;;9.92;54.77;100856.19;5037476;28;20119;-72
2023/04/27 06:53:12;;;;;;;4.60;0.55;;;;;;;9.78;54.67;100860.59;5041108;28;20025;-69
2023/04/27 06:55:38;;;;;;;3.17;0.50;;;;;;;9.49;54.07;100860.72;5039617;28;20027;-71
2023/04/27 06:58:03;;;;;;;3.65;0.77;;;;;;;9.54;53.79;100853.75;5040212;28;20068;-70
2023/04/27 07:00:30;;;;;;;4.05;0.50;;;;;;;9.73;52.65;100838.84;5038819;28;20033;-71
2023/04/27 07:02:55;;;;;;;4.55;0.60;;;;;;;9.91;53.19;100869.81;5039577;28;20026;-72
2023/04/27 07:05:21;;;;;;;4.03;0.60;;;;;;;9.77;52.98;100863.50;5038276;28;20025;-70
2023/04/27 07:07:46;;;;;;;2.80;0.38;;;;;;;9.75;53.78;100874.44;5017944;28;20191;-72
2023/04/27 07:10:12;;;;;;;4.68;0.98;;;;;;;9.95;53.16;100853.09;5021673;28;20104;-74
2023/04/27 07:12:38;;;;;;;2.35;0.40;;;;;;;9.58;54.60;100875.72;5001507;28;20125;-73
2023/04/27 07:15:05;;;;;;;3.60;0.43;;;;;;;9.65;53.92;100876.59;5002641;28;20022;-73
2023/04/27 07:17:31;;;;;;;3.13;0.50;;;;;;;9.65;55.23;100892.72;5037683;28;20499;-73
2023/04/27 07:19:57;;;;;;;3.88;0.60;;;;;;;9.31;53.75;100853.94;5037476;28;20500;-73
2023/04/27 07:22:23;;;;;;;3.17;0.73;;;;;;;9.33;55.68;100865.28;5038097;28;20057;-73
2023/04/27 07:24:49;;;;;;;3.25;0.45;;;;;;;9.38;56.58;100896.97;5038294;28;20093;-73
2023/04/27 07:27:14;;;;;;;4.88;0.35;;;;;;;9.70;54.14;100895.69;5036953;28;20447;-73
2023/04/27 07:29:41;;;;;;;1.13;0.25;;;;;;;9.87;53.97;100886.34;5017044;28;20092;-72
2023/04/27 07:32:07;;;;;;;2.40;0.40;;;;;;;9.55;52.34;100855.41;5026709;28;20033;-74
2023/04/27 07:34:33;;;;;;;2.63;0.95;;;;;;;9.74;54.37;100891.59;5038391;28;20029;-72
2023/04/27 07:37:00;;;;;;;4.10;0.55;;;;;;;9.43;53.30;100899.91;5018715;28;20045;-72
2023/04/27 07:39:26;;;;;;;3.22;0.38;;;;;;;9.59;53.50;100882.72;5037058;28;20029;-69
2023/04/27 07:41:51;;;;;;;1.80;0.32;;;;;;;9.87;53.70;100902.47;5034468;28;20091;-71
2023/04/27 07:44:18;;;;;;;0.90;0.15;;;;;;;10.08;51.49;100903.47;5041165;28;20065;-71
2023/04/27 07:46:46;;;;;;;0.52;0.25;;;;;;;10.11;51.61;100895.03;5042552;28;20017;-71
2023/04/27 07:49:12;;;;;;;5.00;0.73;;;;;;;10.30;53.31;100913.22;5020682;28;20253;-71
2023/04/27 07:51:38;;;;;;;2.97;0.50;;;;;;;10.10;51.82;100904.13;5034886;28;20029;-71
2023/04/27 07:54:04;;;;;;;1.17;0.43;;;;;;;10.03;51.86;100906.75;5034500;28;20030;-71
2023/04/27 07:56:30;;;;;;;2.28;0.70;;;;;;;10.22;52.00;100921.38;5017995;28;20036;-71
2023/04/27 07:58:55;;;;;;;2.25;0.60;;;;;;;10.21;52.01;100927.78;5036141;28;20073;-71
2023/04/27 08:01:21;;;;;;;1.85;0.30;;;;;;;10.29;52.40;100926.84;5035072;28;20036;-71
2023/04/27 08:03:46;;;;;;;1.92;0.40;;;;;;;10.07;52.50;100899.13;5036405;28;20037;-72
2023/04/27 08:06:12;;;;;;;4.50;0.50;;;;;;;10.34;52.70;100936.00;5036521;28;20030;-71
2023/04/27 08:08:37;;;;;;;1.52;0.30;;;;;;;10.30;51.94;100933.91;5036471;28;20025;-71
2023/04/27 08:11:03;;;;;;;2.78;0.43;;;;;;;10.12;52.36;100945.06;5037868;28;20037;-71
2023/04/27 08:13:28;;;;;;;2.50;0.50;;;;;;;10.26;51.58;100949.56;5032943;28;20078;-71
2023/04/27 08:15:58;;;;;;;1.88;0.47;;;;;;;10.05;51.99;100925.38;5034924;28;20044;-71
2023/04/27 08:18:24;;;;;;;1.13;0.40;;;;;;;9.95;52.07;100947.19;5034795;28;20033;-71
2023/04/27 08:20:49;;;;;;;2.42;0.40;;;;;;;9.97;51.60;100950.53;5034108;28;20033;-71
2023/04/27 08:23:15;;;;;;;2.60;0.68;;;;;;;9.78;52.59;100917.03;5032955;28;20124;-71
2023/04/27 08:25:42;;;;;;;2.28;0.50;;;;;;;9.78;52.56;100948.47;5032238;28;20034;-71
2023/04/27 08:28:07;;;;;;;2.10;0.40;;;;;;;10.16;52.17;100956.28;5000415;28;20132;-71
2023/04/27 08:30:35;;;;;;;3.88;0.38;;;;;;;10.37;51.70;100950.09;5033169;28;20050;-71
2023/04/27 08:33:00;;;;;;;2.38;0.40;;;;;;;10.25;51.16;100950.56;5034932;28;20029;-71
2023/04/27 08:35:26;;;;;;;2.55;0.40;;;;;;;10.54;51.11;100964.94;5035768;28;20088;-71
2023/04/27 08:37:53;;;;;;;1.73;0.43;;;;;;;10.42;51.33;100970.00;5034863;28;20053;-70
2023/04/27 08:40:19;;;;;;;2.58;0.50;;;;;;;10.62;51.90;100964.75;5036416;28;20042;-71
2023/04/27 08:42:58;;;;;;;5.53;0.90;;;;;;;10.34;52.16;100957.53;5033167;28;20424;-72
2023/04/27 08:45:25;;;;;;;2.35;0.50;;;;;;;10.33;51.92;100966.63;5035154;28;20033;-72
2023/04/27 08:47:50;;;;;;;2.08;0.40;;;;;;;9.90;52.26;100971.13;5038474;28;20044;-72
2023/04/27 08:50:16;;;;;;;2.08;0.60;;;;;;;9.68;52.74;100953.31;5038446;28;20443;-72
2023/04/27 08:52:46;;;;;;;0.73;0.20;;;;;;;10.08;51.72;100968.00;5041464;28;20032;-72
2023/04/27 08:55:11;;;;;;;2.53;0.30;;;;;;;10.25;51.71;100963.19;5044214;28;20037;-72
2023/04/27 08:57:37;;;;;;;3.80;0.30;;;;;;;10.76;49.28;100973.75;5038673;28;20042;-72
2023/04/27 09:00:22;;;;;;;1.85;0.40;;;;;;;10.45;51.51;100974.97;5039848;28;20357;-72
2023/04/27 09:02:47;;;;;;;;;;;;;;;9.99;50.13;100983.41;5040029;28;20040;-72
2023/04/27 09:05:21;;;;;;;1.75;0.40;;;;;;;9.76;50.98;100975.50;5038243;28;19913;-71
2023/04/27 09:08:01;;;;;;;2.83;0.40;;;;;;;10.29;50.02;100986.00;5038438;28;20033;-71
2023/04/27 09:10:30;;;;;;;2.45;0.55;;;;;;;10.27;50.10;100991.59;5037451;28;20025;-71
2023/04/27 09:12:59;;;;;;;2.38;0.40;;;;;;;9.83;51.45;100976.44;5035196;28;20025;-71
2023/04/27 09:15:26;;;;;;;2.45;0.45;;;;;;;9.97;53.08;100987.34;5035679;28;20022;-71
2023/04/27 09:17:57;;;;;;;1.42;0.30;;;;;;;9.87;52.00;100996.53;5037545;28;20056;-71
2023/04/27 09:20:25;;;;;;;1.67;0.30;;;;;;;10.50;49.48;100994.06;5019704;28;20040;-71
2023/04/27 09:22:54;;;;;;;1.58;0.40;;;;;;;10.43;50.34;100998.56;5035925;28;20381;-72
2023/04/27 09:25:28;;;;;;;2.70;0.40;;;;;;;10.55;50.20;100980.03;5036308;28;20033;-72
2023/04/27 09:27:54;;;;;;;1.70;0.32;;;;;;;10.54;49.19;101003.41;5020325;28;20029;-71
2023/04/27 09:30:20;;;;;;;1.83;0.40;;;;;;;10.53;50.13;101007.16;5036297;28;20044;-71
2023/04/27 09:32:58;;;;;;;1.95;0.30;;;;;;;10.53;48.84;101009.84;5035878;28;20029;-72
2023/04/27 09:35:31;;;;;;;1.45;0.40;;;;;;;10.86;47.63;101005.72;5039558;28;20439;-72
2023/04/27 09:37:58;;;;;;;2.33;0.30;;;;;;;11.08;47.37;101003.81;5044488;28;20046;-71
2023/04/27 09:40:26;;;;;;;2.72;0.40;;;;;;;10.85;47.94;100996.81;5037663;28;20045;-71
2023/04/27 09:42:53;;;;;;;3.08;0.80;;;;;;;10.30;49.24;101006.53;5021596;28;20043;-71
2023/04/27 09:45:20;;;;;;;3.58;0.43;;;;;;;10.34;50.78;101018.56;5038592;28;20091;-71
2023/04/27 09:47:45;;;;;;;2.17;0.40;;;;;;;10.41;50.26;101010.53;5039145;28;20033;-71
2023/04/27 09:50:12;;;;;;;2.85;0.50;;;;;;;10.18;50.49;101006.16;5038916;28;20033;-72
2023/04/27 09:52:38;;;;;;;2.45;0.50;;;;;;;9.94;51.30;101015.41;5038632;28;20439;-71
2023/04/27 09:55:08;;;;;;;0.70;0.28;;;;;;;10.04;50.27;101020.50;5037285;28;20091;-71
2023/04/27 09:57:57;;;;;;;1.67;0.35;;;;;;;10.12;51.33;101028.44;5037949;28;20026;-71
2023/04/27 10:00:40;;;;;;;1.65;0.30;;;;;;;10.06;52.63;101032.69;5042180;28;20564;-71
2023/04/27 10:03:36;;;;;;;1.58;0.30;;;;;;;10.09;50.44;101015.34;5039916;28;20029;-72
2023/04/27 10:06:39;;;;;;;1.02;0.40;;;;;;;10.10;53.08;101017.03;5035686;28;20025;-71
2023/04/27 10:09:05;;;;;;;2.55;0.50;;;;;;;9.94;52.58;101025.34;5034869;28;20032;-71
2023/04/27 10:11:42;;;;;;;1.02;0.35;;;;;;;9.97;52.67;101038.41;5037847;28;20432;-71
2023/04/27 10:14:15;;;;;;;3.10;0.30;;;;;;;10.49;51.22;101040.00;5037788;28;20025;-71
2023/04/27 10:16:57;;;;;;;1.20;0.30;;;;;;;10.65;50.08;101038.91;5034201;28;20056;-72
2023/04/27 10:19:24;;;;;;;2.63;0.40;;;;;;;10.51;50.88;101035.25;5034118;28;20025;-71
2023/04/27 10:21:59;;;;;;;4.85;1.10;;;;;;;10.21;50.96;101021.91;5036120;28;20036;-71
2023/04/27 10:24:35;;;;;;;2.08;0.47;;;;;;;10.18;51.66;101030.34;5036663;28;20021;-72
2023/04/27 10:27:05;;;;;;;1.67;0.30;;;;;;;10.18;52.00;101043.81;5037585;28;20091;-71
2023/04/27 10:29:35;;;;;;;1.17;0.40;;;;;;;10.54;51.85;101045.66;5038826;28;20047;-71
2023/04/27 10:32:06;;;;;;;1.30;0.30;;;;;;;10.64;49.29;101045.31;5043444;28;20025;-72
2023/04/27 10:34:35;;;;;;;1.90;0.40;;;;;;;10.28;48.83;101038.16;5040442;28;20036;-70
2023/04/27 10:37:10;;;;;;;1.95;0.20;;;;;;;10.58;48.02;101050.44;5038033;28;20045;-71
2023/04/27 10:39:38;;;;;;;2.13;0.30;;;;;;;10.60;48.69;101035.97;5038646;28;20055;-72
2023/04/27 10:42:04;;;;;;;1.08;0.20;;;;;;;10.68;50.55;101054.66;5038768;28;20032;-70
2023/04/27 10:44:31;;;;;;;1.13;0.28;;;;;;;10.77;46.88;101023.91;5038533;28;20021;-72
2023/04/27 10:47:00;;;;;;;1.00;0.30;;;;;;;10.99;47.88;101027.34;5020159;28;20036;-70
2023/04/27 10:49:29;;;;;;;2.13;0.30;;;;;;;10.71;46.86;101038.97;5038144;28;20076;-74
2023/04/27 10:51:57;;;;;;;4.32;0.40;;;;;;;10.49;49.44;101056.13;5020600;28;20120;-74
2023/04/27 10:54:27;;;;;;;2.30;0.30;;;;;;;11.13;46.59;101058.75;5038596;28;20032;-81
2023/04/27 10:56:54;;;;;;;0.88;0.20;;;;;;;11.05;47.41;101054.34;5021334;28;20048;-74
2023/04/27 10:59:20;;;;;;;2.83;0.40;;;;;;;10.61;48.45;101034.94;5037798;28;20064;-73
2023/04/27 11:01:48;;;;;;;3.20;0.50;;;;;;;10.76;48.79;101063.44;5020545;28;20029;-70
2023/04/27 11:04:15;;;;;;;1.73;0.30;;;;;;;10.61;49.49;101054.59;5038774;28;20155;-71
2023/04/27 11:06:42;;;;;;;4.05;0.50;;;;;;;10.51;48.54;101064.84;5038646;28;20128;-73
2023/04/27 11:09:09;;;;;;;2.22;0.47;;;;;;;10.17;48.85;101069.03;5036595;28;20040;-70
2023/04/27 11:11:35;;;;;;;1.15;0.20;;;;;;;10.39;47.51;101069.06;5036605;28;20029;-71
2023/04/27 11:14:02;;;;;;;1.00;0.30;;;;;;;10.73;46.11;101082.66;5035977;28;20029;-75
2023/04/27 11:16:28;;;;;;;2.70;0.52;;;;;;;10.64;47.93;101074.91;5037687;28;20029;-72
2023/04/27 11:18:53;;;;;;;0.82;0.20;;;;;;;10.78;48.62;101082.91;5036151;28;20041;-72
2023/04/27 11:21:20;;;;;;;1.15;0.28;;;;;;;11.14;46.48;101086.53;5037084;28;20017;-72
2023/04/27 11:23:46;;;;;;;3.75;0.50;;;;;;;10.76;47.95;101063.44;5036286;28;20048;-73
2023/04/27 11:26:16;;;;;;;1.67;0.30;;;;;;;11.01;46.66;101084.56;5037001;28;20025;-71
2023/04/27 11:28:58;;;;;;;0.90;0.20;;;;;;;10.99;44.90;101086.59;5036168;28;20385;-72
2023/04/27 11:31:25;;;;;;;2.63;0.45;;;;;;;11.03;46.25;101088.72;5036428;28;20068;-72